DAL511 LFPG-KBOS
Flight info
| Callsign | DAL511 |
|---|---|
| Flight time | N/A |
| Altitude | 38000 |
| Route | ATREX DCT VESAN DCT RATUK DCT SOVAT L613 SANDY L722 ICTAM L179 SAWPE DCT OZZIL DCT ARPAK DCT FELCA DCT NICXI DCT OFSOX DCT SLANY DCT DIMUS DCT ABAGU DCT TIPUR DCT NEBIN/M081F380 NATG TUDEP/N0470F380 N526A TOPPS DCT AJJAY OOSHN5 |
| Aircraft | A339/H-SADE1E2E3GHIJ3J5M1P2RWXY/LB2D1 |
Departure
| Time | N/A |
|---|---|
| Airport | Charles de Gaulle International Airport (LFPG) |
Arrival
| Time | 2026-05-03 20:41 |
|---|---|
| Airport | Boston Logan International Airport (KBOS) |
| Time | Latitude | Longitude | Altitude | Speed | Heading |
|---|---|---|---|---|---|
| 2026-05-03 20:15 | 42.66089 | -70.08462 | 11386 ft | 313 kts | 216° |
| 2026-05-03 20:15 | 42.64654 | -70.10193 | 10663 ft | 305 kts | 235° |
| 2026-05-03 20:15 | 42.63637 | -70.12647 | 9840 ft | 295 kts | 251° |
| 2026-05-03 20:15 | 42.62827 | -70.15201 | 9245 ft | 294 kts | 251° |
| 2026-05-03 20:16 | 42.61974 | -70.17829 | 9050 ft | 312 kts | 250° |
| 2026-05-03 20:16 | 42.61108 | -70.20359 | 8985 ft | 282 kts | 250° |
| 2026-05-03 20:16 | 42.60306 | -70.22656 | 8978 ft | 275 kts | 250° |
| 2026-05-03 20:16 | 42.59625 | -70.25086 | 8975 ft | 271 kts | 257° |
| 2026-05-03 20:17 | 42.59065 | -70.27390 | 8975 ft | 271 kts | 257° |
| 2026-05-03 20:17 | 42.58459 | -70.29840 | 8977 ft | 272 kts | 257° |
| 2026-05-03 20:17 | 42.57850 | -70.32275 | 8982 ft | 271 kts | 256° |
| 2026-05-03 20:17 | 42.57249 | -70.34669 | 8985 ft | 272 kts | 256° |
| 2026-05-03 20:18 | 42.56635 | -70.37092 | 8987 ft | 272 kts | 256° |
| 2026-05-03 20:18 | 42.56018 | -70.39517 | 8983 ft | 272 kts | 256° |
| 2026-05-03 20:18 | 42.55403 | -70.41938 | 8987 ft | 272 kts | 256° |
| 2026-05-03 20:18 | 42.54788 | -70.44364 | 8985 ft | 272 kts | 256° |
| 2026-05-03 20:19 | 42.54174 | -70.46776 | 8880 ft | 269 kts | 256° |
| 2026-05-03 20:19 | 42.53568 | -70.49134 | 8751 ft | 259 kts | 256° |
| 2026-05-03 20:19 | 42.52991 | -70.51368 | 8613 ft | 242 kts | 257° |
| 2026-05-03 20:19 | 42.52459 | -70.53481 | 8295 ft | 233 kts | 258° |
| 2026-05-03 20:20 | 42.51980 | -70.55565 | 7833 ft | 231 kts | 259° |
| 2026-05-03 20:20 | 42.51525 | -70.57645 | 7361 ft | 230 kts | 260° |
| 2026-05-03 20:20 | 42.51067 | -70.59724 | 6914 ft | 229 kts | 259° |
| 2026-05-03 20:20 | 42.50610 | -70.61733 | 6478 ft | 228 kts | 259° |
| 2026-05-03 20:21 | 42.50157 | -70.63691 | 6051 ft | 226 kts | 259° |
| 2026-05-03 20:21 | 42.49682 | -70.65741 | 5625 ft | 225 kts | 259° |
| 2026-05-03 20:21 | 42.49212 | -70.67759 | 5213 ft | 223 kts | 259° |
| 2026-05-03 20:21 | 42.48751 | -70.69734 | 5043 ft | 224 kts | 259° |
| 2026-05-03 20:22 | 42.48286 | -70.71739 | 5011 ft | 224 kts | 259° |
| 2026-05-03 20:22 | 42.47815 | -70.73773 | 5013 ft | 224 kts | 259° |
| 2026-05-03 20:22 | 42.47351 | -70.75788 | 5016 ft | 224 kts | 259° |
| 2026-05-03 20:22 | 42.46895 | -70.77772 | 5014 ft | 223 kts | 259° |
| 2026-05-03 20:23 | 42.46427 | -70.79811 | 5013 ft | 224 kts | 259° |
| 2026-05-03 20:23 | 42.45853 | -70.81814 | 5010 ft | 230 kts | 244° |
| 2026-05-03 20:23 | 42.44691 | -70.83363 | 5023 ft | 243 kts | 217° |
| 2026-05-03 20:23 | 42.43083 | -70.84218 | 5013 ft | 251 kts | 200° |
| 2026-05-03 20:24 | 42.41395 | -70.84745 | 5002 ft | 252 kts | 197° |
| 2026-05-03 20:24 | 42.39735 | -70.85229 | 5009 ft | 236 kts | 198° |
| 2026-05-03 20:24 | 42.38134 | -70.85358 | 4994 ft | 227 kts | 178° |
| 2026-05-03 20:24 | 42.36597 | -70.84855 | 4742 ft | 228 kts | 166° |
| 2026-05-03 20:25 | 42.35069 | -70.84251 | 4465 ft | 228 kts | 167° |
| 2026-05-03 20:25 | 42.33585 | -70.83541 | 4120 ft | 230 kts | 152° |
| 2026-05-03 20:25 | 42.32378 | -70.82154 | 3840 ft | 227 kts | 131° |
| 2026-05-03 20:25 | 42.31342 | -70.80663 | 3507 ft | 230 kts | 131° |
| 2026-05-03 20:26 | 42.30226 | -70.79090 | 3211 ft | 230 kts | 133° |
| 2026-05-03 20:26 | 42.29101 | -70.77575 | 3025 ft | 225 kts | 134° |
| 2026-05-03 20:26 | 42.27948 | -70.76050 | 2990 ft | 231 kts | 134° |
| 2026-05-03 20:26 | 42.26821 | -70.74570 | 2994 ft | 228 kts | 135° |
| 2026-05-03 20:27 | 42.25656 | -70.73092 | 2997 ft | 230 kts | 135° |
| 2026-05-03 20:27 | 42.24475 | -70.71603 | 2995 ft | 230 kts | 135° |
| 2026-05-03 20:27 | 42.23316 | -70.70110 | 2984 ft | 228 kts | 135° |
| 2026-05-03 20:27 | 42.22180 | -70.68636 | 2986 ft | 227 kts | 134° |
| 2026-05-03 20:28 | 42.21031 | -70.67142 | 2987 ft | 227 kts | 134° |
| 2026-05-03 20:28 | 42.19886 | -70.65649 | 2985 ft | 229 kts | 134° |
| 2026-05-03 20:28 | 42.18752 | -70.64153 | 2985 ft | 229 kts | 134° |
| 2026-05-03 20:28 | 42.17607 | -70.62656 | 2988 ft | 229 kts | 134° |
| 2026-05-03 20:29 | 42.16452 | -70.61161 | 2986 ft | 230 kts | 134° |
| 2026-05-03 20:29 | 42.15318 | -70.59682 | 2988 ft | 231 kts | 135° |
| 2026-05-03 20:29 | 42.14142 | -70.58158 | 2985 ft | 230 kts | 135° |
| 2026-05-03 20:29 | 42.12961 | -70.56742 | 2968 ft | 230 kts | 147° |
| 2026-05-03 20:30 | 42.11479 | -70.56041 | 2980 ft | 226 kts | 181° |
| 2026-05-03 20:30 | 42.09997 | -70.56390 | 2986 ft | 211 kts | 215° |
| 2026-05-03 20:30 | 42.08822 | -70.57495 | 2979 ft | 203 kts | 230° |
| 2026-05-03 20:30 | 42.08084 | -70.58971 | 2981 ft | 184 kts | 266° |
| 2026-05-03 20:31 | 42.08257 | -70.60535 | 2983 ft | 168 kts | 307° |
| 2026-05-03 20:31 | 42.09002 | -70.61731 | 2980 ft | 165 kts | 315° |
| 2026-05-03 20:31 | 42.09785 | -70.62843 | 2989 ft | 164 kts | 316° |
| 2026-05-03 20:31 | 42.10566 | -70.63963 | 3000 ft | 165 kts | 315° |
| 2026-05-03 20:32 | 42.11350 | -70.65115 | 2984 ft | 167 kts | 314° |
| 2026-05-03 20:32 | 42.12134 | -70.66272 | 2986 ft | 166 kts | 314° |
| 2026-05-03 20:32 | 42.12912 | -70.67419 | 2987 ft | 166 kts | 314° |
| 2026-05-03 20:32 | 42.13691 | -70.68577 | 2982 ft | 166 kts | 312° |
| 2026-05-03 20:33 | 42.14328 | -70.69874 | 2977 ft | 169 kts | 304° |
| 2026-05-03 20:33 | 42.14942 | -70.71218 | 2984 ft | 168 kts | 308° |
| 2026-05-03 20:33 | 42.15662 | -70.72417 | 2982 ft | 167 kts | 314° |
| 2026-05-03 20:33 | 42.16465 | -70.73532 | 2988 ft | 167 kts | 316° |
| 2026-05-03 20:34 | 42.17292 | -70.74644 | 2992 ft | 167 kts | 316° |
| 2026-05-03 20:34 | 42.18090 | -70.75728 | 2981 ft | 154 kts | 316° |
| 2026-05-03 20:34 | 42.18809 | -70.76711 | 2987 ft | 148 kts | 316° |
| 2026-05-03 20:34 | 42.19540 | -70.77704 | 2978 ft | 146 kts | 317° |
| 2026-05-03 20:35 | 42.20264 | -70.78655 | 2986 ft | 148 kts | 317° |
| 2026-05-03 20:35 | 42.20988 | -70.79633 | 2985 ft | 147 kts | 316° |
| 2026-05-03 20:35 | 42.21706 | -70.80614 | 2993 ft | 148 kts | 316° |
| 2026-05-03 20:35 | 42.22421 | -70.81580 | 2996 ft | 146 kts | 316° |
| 2026-05-03 20:36 | 42.23142 | -70.82554 | 2999 ft | 146 kts | 317° |
| 2026-05-03 20:36 | 42.23863 | -70.83528 | 3008 ft | 148 kts | 316° |
| 2026-05-03 20:36 | 42.24533 | -70.84439 | 2956 ft | 146 kts | 317° |
| 2026-05-03 20:36 | 42.25281 | -70.85435 | 2795 ft | 148 kts | 316° |
| 2026-05-03 20:37 | 42.26004 | -70.86419 | 2614 ft | 148 kts | 316° |
| 2026-05-03 20:37 | 42.26743 | -70.87410 | 2421 ft | 151 kts | 316° |
| 2026-05-03 20:37 | 42.27486 | -70.88411 | 2223 ft | 151 kts | 316° |
| 2026-05-03 20:37 | 42.28233 | -70.89419 | 2016 ft | 150 kts | 316° |
| 2026-05-03 20:38 | 42.28964 | -70.90393 | 1813 ft | 140 kts | 315° |
| 2026-05-03 20:38 | 42.29606 | -70.91270 | 1629 ft | 123 kts | 316° |
| 2026-05-03 20:38 | 42.30215 | -70.92087 | 1472 ft | 126 kts | 316° |
| 2026-05-03 20:38 | 42.30806 | -70.92896 | 1314 ft | 116 kts | 315° |
| 2026-05-03 20:39 | 42.31430 | -70.93727 | 1168 ft | 127 kts | 315° |
| 2026-05-03 20:39 | 42.32037 | -70.94538 | 997 ft | 119 kts | 318° |
| 2026-05-03 20:39 | 42.32649 | -70.95354 | 808 ft | 129 kts | 314° |
| 2026-05-03 20:39 | 42.33221 | -70.96165 | 648 ft | 127 kts | 316° |
| 2026-05-03 20:40 | 42.33867 | -70.96995 | 482 ft | 128 kts | 315° |
| 2026-05-03 20:40 | 42.34431 | -70.97779 | 265 ft | 119 kts | 317° |
| 2026-05-03 20:40 | 42.35061 | -70.98602 | 195 ft | 139 kts | 317° |
| 2026-05-03 20:40 | 42.35728 | -70.99511 | 34 ft | 126 kts | 315° |
| 2026-05-03 20:41 | 42.36142 | -71.00070 | 28 ft | 59 kts | 315° |
| 2026-05-03 20:41 | 42.36411 | -71.00432 | 31 ft | 51 kts | 315° |
| 2026-05-03 20:41 | 42.36630 | -71.00724 | 31 ft | 41 kts | 316° |
| 2026-05-03 20:41 | 42.36761 | -71.00903 | 31 ft | 38 kts | 314° |
| 2026-05-03 20:42 | 42.36915 | -71.01117 | 31 ft | 10 kts | 306° |
| 2026-05-03 20:42 | 42.36929 | -71.01180 | 31 ft | 11 kts | 276° |
| 2026-05-03 20:42 | 42.36925 | -71.01227 | 31 ft | 0 kts | 261° |
| 2026-05-03 20:43 | 42.36921 | -71.01262 | 31 ft | 7 kts | 262° |
| 2026-05-03 20:43 | 42.36933 | -71.01335 | 31 ft | 8 kts | 295° |
| 2026-05-03 20:43 | 42.36980 | -71.01406 | 31 ft | 12 kts | 313° |
| 2026-05-03 20:44 | 42.37042 | -71.01489 | 31 ft | 13 kts | 315° |
| 2026-05-03 20:44 | 42.37109 | -71.01578 | 31 ft | 14 kts | 315° |
| 2026-05-03 20:44 | 42.37151 | -71.01671 | 31 ft | 10 kts | 272° |
| 2026-05-03 20:44 | 42.37133 | -71.01744 | 31 ft | 7 kts | 263° |
| 2026-05-03 20:45 | 42.37136 | -71.01791 | 31 ft | 6 kts | 272° |
| 2026-05-03 20:45 | 42.37127 | -71.01824 | 31 ft | 3 kts | 246° |
| 2026-05-03 20:45 | 42.37104 | -71.01847 | 31 ft | 5 kts | 209° |
| 2026-05-03 20:45 | 42.37079 | -71.01861 | 31 ft | 1 kts | 207° |
| 2026-05-03 20:46 | 42.37075 | -71.01865 | 31 ft | 0 kts | 210° |
| 2026-05-03 20:46 | 42.37075 | -71.01866 | 31 ft | 1 kts | 210° |
| 2026-05-03 20:46 | 42.37073 | -71.01867 | 31 ft | 0 kts | 211° |